createdAt,value
2019-03-18T00:08:24.017Z,2.50
2019-03-18T00:10:59.681Z,2.00
2019-03-18T00:13:42.519Z,2.30
2019-03-18T00:16:19.902Z,2.70
2019-03-18T00:19:14.587Z,2.50
2019-03-18T00:25:28.442Z,2.10
2019-03-18T00:28:04.189Z,2.00
2019-03-18T00:30:57.146Z,1.40
2019-03-18T00:34:23.225Z,2.37
2019-03-18T00:39:44.769Z,1.60
2019-03-18T00:42:37.820Z,2.17
2019-03-18T00:45:15.600Z,2.30
2019-03-18T00:55:30.485Z,2.60
2019-03-18T00:58:39.340Z,2.50
2019-03-18T01:04:48.947Z,2.90
2019-03-18T01:07:25.807Z,2.60
2019-03-18T01:10:14.759Z,2.27
2019-03-18T01:13:13.051Z,2.87
2019-03-18T01:15:48.111Z,2.93
2019-03-18T01:18:35.701Z,3.03
2019-03-18T01:21:10.588Z,3.60
2019-03-18T01:24:02.343Z,3.00
2019-03-18T01:26:54.084Z,2.90
2019-03-18T01:29:53.467Z,3.23
2019-03-18T01:32:55.123Z,3.03
2019-03-18T01:35:43.075Z,2.60
2019-03-18T01:38:33.777Z,2.60
2019-03-18T01:41:47.499Z,3.00
2019-03-18T01:44:37.505Z,2.80
2019-03-18T01:47:24.563Z,3.30
2019-03-18T01:50:23.114Z,2.90
2019-03-18T01:53:13.279Z,2.97
2019-03-18T01:55:49.306Z,1.97
2019-03-18T02:02:30.316Z,3.47
2019-03-18T02:05:07.483Z,2.47
2019-03-18T02:08:06.948Z,2.20
2019-03-18T02:10:52.801Z,2.27
2019-03-18T02:13:27.816Z,3.57
2019-03-18T02:16:19.703Z,2.30
2019-03-18T02:19:07.860Z,2.17
2019-03-18T02:24:53.790Z,1.87
2019-03-18T02:27:29.873Z,1.10
2019-03-18T02:30:06.257Z,1.70
2019-03-18T02:32:41.206Z,2.47
2019-03-18T02:38:40.323Z,1.83
2019-03-18T02:41:29.420Z,2.00
2019-03-18T02:44:05.269Z,1.70
2019-03-18T02:46:55.363Z,1.73
2019-03-18T02:49:52.740Z,2.00
2019-03-18T02:52:27.637Z,1.83
2019-03-18T02:55:40.829Z,1.30
2019-03-18T02:58:29.427Z,1.40
2019-03-18T03:01:19.972Z,1.63
2019-03-18T03:03:57.572Z,1.20
2019-03-18T03:06:33.327Z,1.40
2019-03-18T03:09:21.730Z,1.97
2019-03-18T03:12:12.185Z,1.17
2019-03-18T03:14:53.704Z,1.30
2019-03-18T03:17:44.652Z,1.43
2019-03-18T03:20:23.235Z,1.70
2019-03-18T03:23:04.991Z,1.70
2019-03-18T03:25:40.815Z,2.63
2019-03-18T03:28:18.096Z,1.70
2019-03-18T03:30:59.240Z,1.77
2019-03-18T03:33:34.284Z,1.83
2019-03-18T03:36:09.151Z,1.83
2019-03-18T03:38:48.438Z,1.43
2019-03-18T03:41:47.909Z,2.13
2019-03-18T03:44:28.121Z,2.13
2019-03-18T03:47:18.470Z,1.93
2019-03-18T03:49:53.390Z,1.80
2019-03-18T03:52:43.371Z,1.73
2019-03-18T03:55:31.853Z,1.70
2019-03-18T03:58:07.793Z,1.60
2019-03-18T04:00:50.684Z,1.70
2019-03-18T04:03:37.614Z,1.63
2019-03-18T04:06:46.369Z,1.67
2019-03-18T04:09:29.229Z,3.07
2019-03-18T04:12:05.690Z,2.20
2019-03-18T04:18:07.644Z,1.63
2019-03-18T04:21:07.297Z,2.07
2019-03-18T04:23:51.159Z,2.03
2019-03-18T04:26:29.223Z,2.03
2019-03-18T04:29:23.904Z,1.40
2019-03-18T04:32:03.149Z,2.23
2019-03-18T04:34:57.849Z,2.40
2019-03-18T04:37:32.918Z,2.63
2019-03-18T04:40:24.761Z,1.73
2019-03-18T04:43:00.513Z,2.30
2019-03-18T04:45:35.672Z,2.40
2019-03-18T04:48:29.791Z,2.60
2019-03-18T04:51:04.967Z,2.20
2019-03-18T04:53:52.614Z,2.17
2019-03-18T04:57:06.845Z,2.80
2019-03-18T05:00:03.229Z,1.50
2019-03-18T05:02:51.948Z,2.17
2019-03-18T05:05:40.699Z,3.57
2019-03-18T05:08:31.760Z,2.30
2019-03-18T05:11:06.978Z,1.90
2019-03-18T05:13:41.935Z,2.23
2019-03-18T05:16:17.732Z,2.60
2019-03-18T05:18:54.876Z,2.13
2019-03-18T05:21:55.684Z,2.33
2019-03-18T05:24:44.065Z,3.07
2019-03-18T05:43:22.159Z,2.03
2019-03-18T05:46:02.901Z,2.33
2019-03-18T05:48:39.473Z,2.90
2019-03-18T05:51:23.999Z,2.80
2019-03-18T05:54:05.170Z,2.53
2019-03-18T05:56:40.954Z,2.73
2019-03-18T06:02:30.483Z,2.03
2019-03-18T06:05:09.275Z,2.43
2019-03-18T06:07:57.369Z,2.83
2019-03-18T06:10:33.185Z,2.73
2019-03-18T06:13:12.667Z,2.07
2019-03-18T06:16:34.572Z,2.50
2019-03-18T06:19:15.477Z,2.07
2019-03-18T06:22:05.599Z,2.47
2019-03-18T06:24:55.452Z,1.53
2019-03-18T06:27:31.253Z,1.27
2019-03-18T06:30:13.723Z,1.30
2019-03-18T06:32:57.492Z,1.10
2019-03-18T06:35:32.490Z,0.87
2019-03-18T06:38:08.327Z,1.20
2019-03-18T06:43:43.242Z,1.30
2019-03-18T06:46:23.734Z,1.30
2019-03-18T06:49:11.718Z,1.47
2019-03-18T06:51:53.485Z,1.67
2019-03-18T06:54:28.376Z,1.77
2019-03-18T07:00:07.018Z,1.70
2019-03-18T07:02:45.501Z,1.63
2019-03-18T07:05:21.218Z,2.33
2019-03-18T07:08:02.772Z,2.20
2019-03-18T07:10:37.658Z,2.20
2019-03-18T07:13:14.476Z,1.63
2019-03-18T07:15:55.235Z,2.27
2019-03-18T07:18:40.952Z,1.57
2019-03-18T07:21:17.292Z,1.60
2019-03-18T07:24:15.186Z,2.50
2019-03-18T07:27:12.236Z,2.23
2019-03-18T07:29:47.107Z,1.93
2019-03-18T07:32:43.314Z,1.43
2019-03-18T07:35:18.208Z,2.53
2019-03-18T07:38:08.013Z,2.20
2019-03-18T07:40:57.042Z,1.40
2019-03-18T07:43:32.765Z,3.40
2019-03-18T07:46:21.064Z,1.90
2019-03-18T07:49:12.350Z,1.80
2019-03-18T07:51:48.127Z,2.57
2019-03-18T07:54:36.699Z,3.03
2019-03-18T07:57:35.652Z,2.40
2019-03-18T08:00:18.571Z,1.83
2019-03-18T08:03:11.439Z,2.40
2019-03-18T08:05:47.171Z,1.97
2019-03-18T08:08:22.165Z,2.40
2019-03-18T08:11:00.690Z,2.00
2019-03-18T08:13:42.676Z,2.20
2019-03-18T08:19:25.896Z,2.63
2019-03-18T08:22:01.687Z,2.47
2019-03-18T08:24:36.575Z,2.27
2019-03-18T08:27:11.464Z,1.97
2019-03-18T08:29:47.302Z,2.07
2019-03-18T08:32:22.662Z,2.50
2019-03-18T08:34:57.570Z,2.70
2019-03-18T08:37:32.504Z,2.10
2019-03-18T08:40:08.023Z,3.03
2019-03-18T08:42:43.084Z,1.97
2019-03-18T08:45:18.011Z,2.40
2019-03-18T08:47:53.018Z,3.00
2019-03-18T08:50:27.872Z,4.07
2019-03-18T08:53:02.743Z,3.20
2019-03-18T08:55:37.672Z,3.87
2019-03-18T08:58:12.613Z,4.10
2019-03-18T09:00:47.542Z,3.60
2019-03-18T09:03:22.504Z,2.57
2019-03-18T09:05:57.354Z,3.27
2019-03-18T09:08:32.367Z,2.40
2019-03-18T09:11:07.259Z,2.30
2019-03-18T09:13:42.232Z,2.30
2019-03-18T09:16:17.114Z,3.40
2019-03-18T09:18:52.054Z,2.03
2019-03-18T09:21:27.087Z,3.23
2019-03-18T09:24:02.386Z,2.83
2019-03-18T09:26:37.297Z,2.53
2019-03-18T09:29:12.266Z,2.53
2019-03-18T09:31:49.938Z,2.13
2019-03-18T09:34:24.865Z,2.73
2019-03-18T09:36:59.821Z,3.20
2019-03-18T09:39:34.864Z,2.57
2019-03-18T09:42:09.781Z,3.07
2019-03-18T09:44:44.936Z,2.70
2019-03-18T09:47:19.928Z,2.97
2019-03-18T09:49:54.760Z,2.23
2019-03-18T09:52:29.837Z,3.37
2019-03-18T09:55:04.693Z,3.70
2019-03-18T09:57:39.622Z,3.77
2019-03-18T10:00:14.542Z,3.07
2019-03-18T10:02:49.582Z,2.83
2019-03-18T10:05:24.636Z,3.30
2019-03-18T10:07:59.593Z,3.40
2019-03-18T10:10:34.636Z,2.87
2019-03-18T10:13:09.644Z,2.43
2019-03-18T10:15:45.242Z,2.27
2019-03-18T10:18:20.260Z,3.30
2019-03-18T10:20:55.100Z,2.80
2019-03-18T10:23:30.092Z,2.40
2019-03-18T10:26:04.915Z,1.23
2019-03-18T10:28:40.824Z,1.13
2019-03-18T10:31:15.595Z,0.80
2019-03-18T10:33:50.418Z,0.83
2019-03-18T10:36:25.219Z,1.17
2019-03-18T10:39:01.132Z,1.00
2019-03-18T10:41:37.379Z,1.63
2019-03-18T10:44:12.250Z,1.60
2019-03-18T10:46:47.089Z,2.10
2019-03-18T10:49:22.060Z,2.30
2019-03-18T10:51:56.946Z,1.80
2019-03-18T10:54:32.010Z,1.70
2019-03-18T10:57:06.938Z,2.33
2019-03-18T10:59:42.848Z,2.30
2019-03-18T11:02:18.530Z,2.00
2019-03-18T11:04:53.521Z,2.70
2019-03-18T11:07:28.456Z,2.73
2019-03-18T11:10:03.500Z,2.60
2019-03-18T11:12:38.382Z,3.00
2019-03-18T11:15:14.236Z,1.80
2019-03-18T11:17:49.170Z,3.25
2019-03-18T11:20:25.617Z,2.73
2019-03-18T11:23:00.527Z,1.80
2019-03-18T11:25:35.407Z,2.57
2019-03-18T11:28:10.317Z,2.43
2019-03-18T11:30:46.224Z,1.90
2019-03-18T11:33:21.232Z,2.53
2019-03-18T11:35:56.129Z,2.30
2019-03-18T11:38:32.092Z,2.40
2019-03-18T11:41:08.086Z,2.67
2019-03-18T11:43:42.995Z,1.60
2019-03-18T11:46:17.937Z,2.27
2019-03-18T11:48:52.848Z,1.67
2019-03-18T11:51:27.779Z,2.00
2019-03-18T11:54:02.771Z,2.10
2019-03-18T11:56:37.715Z,2.43
2019-03-18T11:59:12.692Z,2.00
2019-03-18T12:01:47.596Z,2.10
2019-03-18T12:04:22.543Z,2.30
2019-03-18T12:06:57.532Z,1.93
2019-03-18T12:09:32.571Z,2.10
2019-03-18T12:12:07.631Z,1.50
2019-03-18T12:14:42.563Z,2.47
2019-03-18T12:17:18.410Z,2.13
2019-03-18T12:19:53.289Z,1.77
2019-03-18T12:22:28.187Z,2.03
2019-03-18T12:25:03.219Z,2.60
2019-03-18T12:27:38.288Z,1.20
2019-03-18T12:30:17.032Z,1.53
2019-03-18T12:32:52.252Z,1.30
2019-03-18T12:35:27.364Z,1.20
2019-03-18T12:38:02.226Z,1.13
2019-03-18T12:40:37.553Z,0.87
2019-03-18T12:43:12.433Z,0.60
2019-03-18T12:45:47.473Z,0.60
2019-03-18T12:48:22.578Z,1.67
2019-03-18T12:50:58.633Z,1.20
2019-03-18T12:53:33.657Z,1.23
2019-03-18T12:56:08.927Z,1.73
2019-03-18T12:58:44.229Z,1.77
2019-03-18T13:01:19.308Z,1.77
2019-03-18T13:03:54.298Z,2.00
2019-03-18T13:06:29.194Z,1.93
2019-03-18T13:09:07.603Z,1.57
2019-03-18T13:11:42.525Z,2.47
2019-03-18T13:14:17.424Z,2.50
2019-03-18T13:16:52.370Z,1.97
2019-03-18T13:19:27.219Z,2.67
2019-03-18T13:22:02.456Z,2.40
2019-03-18T13:24:37.359Z,1.80
2019-03-18T13:27:12.279Z,1.50
2019-03-18T13:29:47.170Z,1.73
2019-03-18T13:32:23.170Z,2.27
2019-03-18T13:34:58.067Z,2.50
2019-03-18T13:37:33.911Z,1.80
2019-03-18T13:40:10.002Z,1.80
2019-03-18T13:42:45.088Z,1.93
2019-03-18T13:45:20.115Z,2.07
2019-03-18T13:47:56.095Z,1.80
2019-03-18T13:50:31.003Z,2.50
2019-03-18T13:53:06.045Z,2.80
2019-03-18T13:55:40.950Z,2.27
2019-03-18T13:58:16.836Z,1.97
2019-03-18T14:00:51.786Z,1.60
2019-03-18T14:03:26.655Z,1.53
2019-03-18T14:06:01.547Z,1.43
2019-03-18T14:08:36.669Z,2.03
2019-03-18T14:11:11.696Z,1.73
2019-03-18T14:13:46.653Z,1.67
2019-03-18T14:16:21.579Z,1.80
2019-03-18T14:18:56.415Z,1.30
2019-03-18T14:21:33.512Z,1.80
2019-03-18T14:24:08.230Z,1.57
2019-03-18T14:26:44.186Z,1.63
2019-03-18T14:29:19.071Z,2.20
2019-03-18T14:31:54.607Z,2.37
2019-03-18T14:34:29.528Z,1.95
2019-03-18T14:37:04.437Z,2.00
2019-03-18T14:39:39.321Z,2.00
2019-03-18T14:42:14.268Z,2.50
2019-03-18T14:47:23.220Z,2.30
2019-03-18T14:49:59.967Z,2.03
2019-03-18T14:52:34.954Z,1.90
2019-03-18T14:55:10.429Z,2.30
2019-03-18T14:57:45.505Z,2.55
2019-03-18T15:00:21.886Z,1.93
2019-03-18T15:02:57.131Z,2.27
2019-03-18T15:05:32.873Z,1.27
2019-03-18T15:08:07.794Z,1.80
2019-03-18T15:10:42.732Z,2.80
2019-03-18T15:13:30.021Z,1.30
2019-03-18T15:15:55.161Z,2.03
2019-03-18T15:18:30.068Z,2.37
2019-03-18T15:21:04.857Z,2.20
2019-03-18T15:23:39.851Z,2.40
2019-03-18T15:26:14.665Z,1.97
2019-03-18T15:28:50.529Z,2.00
2019-03-18T15:31:25.461Z,1.70
2019-03-18T15:34:00.466Z,1.87
2019-03-18T15:36:35.410Z,1.97
2019-03-18T15:39:10.326Z,1.80
2019-03-18T15:41:45.191Z,2.00
2019-03-18T15:44:20.098Z,2.23
2019-03-18T15:46:54.948Z,1.70
2019-03-18T15:49:29.871Z,1.50
2019-03-18T15:52:10.939Z,1.60
2019-03-18T15:54:53.158Z,2.03
2019-03-18T15:57:29.220Z,2.00
2019-03-18T15:59:55.694Z,1.60
2019-03-18T16:02:30.622Z,2.00
2019-03-18T16:05:05.956Z,1.30
2019-03-18T16:07:41.399Z,2.13
2019-03-18T16:10:16.575Z,2.10
2019-03-18T16:12:51.899Z,2.20
2019-03-18T16:15:26.893Z,2.20
2019-03-18T16:18:03.453Z,2.77
2019-03-18T16:20:38.373Z,2.40
2019-03-18T16:23:13.434Z,2.10
2019-03-18T16:25:48.466Z,1.93
2019-03-18T16:28:23.377Z,2.67
2019-03-18T16:30:58.261Z,1.77
2019-03-18T16:33:33.310Z,1.90
2019-03-18T16:36:08.219Z,2.13
2019-03-18T16:38:43.781Z,2.40
2019-03-18T16:41:18.895Z,2.10
2019-03-18T16:43:54.233Z,2.07
2019-03-18T16:46:29.299Z,1.80
2019-03-18T16:49:05.371Z,2.60
2019-03-18T16:51:40.366Z,1.50
2019-03-18T16:54:15.342Z,1.40
2019-03-18T16:56:50.637Z,1.40
2019-03-18T16:59:26.679Z,0.80
2019-03-18T17:02:03.105Z,1.10
2019-03-18T17:04:38.246Z,1.03
2019-03-18T17:07:13.429Z,2.20
2019-03-18T17:09:48.481Z,1.00
2019-03-18T17:12:23.530Z,1.30
2019-03-18T17:14:58.457Z,0.97
2019-03-18T17:17:33.548Z,1.20
2019-03-18T17:20:10.226Z,1.70
2019-03-18T17:22:49.394Z,1.80
2019-03-18T17:25:22.044Z,1.50
2019-03-18T17:27:57.037Z,2.50
2019-03-18T17:30:31.951Z,2.77
2019-03-18T17:33:08.158Z,3.40
2019-03-18T17:35:43.178Z,2.10
2019-03-18T17:38:18.454Z,2.10
2019-03-18T17:40:53.347Z,2.60
2019-03-18T17:43:28.319Z,1.90
2019-03-18T17:46:03.293Z,1.57
2019-03-18T17:48:38.212Z,1.93
2019-03-18T17:51:13.109Z,2.30
2019-03-18T17:53:49.220Z,1.47
2019-03-18T17:56:30.160Z,1.60
2019-03-18T17:59:00.782Z,2.20
2019-03-18T18:01:35.669Z,2.03
2019-03-18T18:04:11.260Z,1.63
2019-03-18T18:06:46.137Z,1.37
2019-03-18T18:09:23.024Z,1.67
2019-03-18T18:11:59.291Z,1.07
2019-03-18T18:14:34.196Z,1.30
2019-03-18T18:17:09.658Z,1.63
2019-03-18T18:19:44.609Z,1.90
2019-03-18T18:22:19.464Z,1.30
2019-03-18T18:24:54.393Z,1.80
2019-03-18T18:27:29.164Z,1.77
2019-03-18T18:30:04.335Z,2.63
2019-03-18T18:32:39.295Z,2.20
2019-03-18T18:35:14.375Z,2.73
2019-03-18T18:37:49.340Z,1.90
2019-03-18T18:40:25.170Z,1.97
2019-03-18T18:43:00.044Z,2.00
2019-03-18T18:45:34.980Z,1.27
2019-03-18T18:48:09.847Z,2.40
2019-03-18T18:50:44.631Z,1.67
2019-03-18T18:53:26.410Z,2.40
2019-03-18T18:55:56.346Z,2.70
2019-03-18T18:58:31.308Z,1.80
2019-03-18T19:01:09.006Z,2.20
2019-03-18T19:03:43.965Z,2.07
2019-03-18T19:06:18.926Z,1.53
2019-03-18T19:08:53.882Z,2.30
2019-03-18T19:11:28.917Z,2.00
2019-03-18T19:14:04.593Z,3.53
2019-03-18T19:16:39.563Z,2.80
2019-03-18T19:19:14.436Z,3.13
2019-03-18T19:21:49.357Z,2.40
2019-03-18T19:24:24.325Z,2.60
2019-03-18T19:26:59.286Z,2.30
2019-03-18T19:29:34.186Z,2.00
2019-03-18T19:32:09.150Z,2.30
2019-03-18T19:34:44.209Z,2.10
2019-03-18T19:37:19.175Z,2.70
2019-03-18T19:39:56.524Z,1.93
2019-03-18T19:42:31.396Z,2.47
2019-03-18T19:45:07.533Z,1.70
2019-03-18T19:47:42.455Z,3.33
2019-03-18T19:50:18.768Z,2.27
2019-03-18T19:52:53.672Z,2.33
2019-03-18T19:55:28.637Z,2.40
2019-03-18T19:58:03.530Z,2.70
2019-03-18T20:00:38.438Z,2.70
2019-03-18T20:03:13.384Z,2.97
2019-03-18T20:05:49.158Z,2.23
2019-03-18T20:08:24.048Z,3.03
2019-03-18T20:10:58.843Z,2.37
2019-03-18T20:13:33.986Z,2.23
2019-03-18T20:16:08.996Z,2.33
2019-03-18T20:18:43.978Z,2.77
2019-03-18T20:21:18.955Z,1.77
2019-03-18T20:24:00.834Z,1.93
2019-03-18T20:26:30.560Z,2.07
2019-03-18T20:29:06.697Z,2.57
2019-03-18T20:31:41.896Z,2.30
2019-03-18T20:34:16.770Z,2.30
2019-03-18T20:36:52.096Z,1.83
2019-03-18T20:39:28.177Z,2.50
2019-03-18T20:42:03.170Z,2.37
2019-03-18T20:44:38.080Z,2.97
2019-03-18T20:47:14.864Z,2.80
2019-03-18T20:49:49.896Z,4.20
2019-03-18T20:52:24.896Z,2.07
2019-03-18T20:54:59.820Z,1.70
2019-03-18T20:57:34.814Z,2.30
2019-03-18T21:00:11.177Z,1.50
2019-03-18T21:02:46.368Z,1.73
2019-03-18T21:05:21.276Z,1.40
2019-03-18T21:07:56.354Z,2.10
2019-03-18T21:10:31.234Z,1.47
2019-03-18T21:13:06.244Z,1.70
2019-03-18T21:15:41.142Z,1.57
2019-03-18T21:18:16.128Z,1.90
2019-03-18T21:20:52.350Z,2.40
2019-03-18T21:23:27.288Z,2.00
2019-03-18T21:26:02.312Z,1.97
2019-03-18T21:28:41.524Z,2.20
2019-03-18T21:31:14.453Z,2.80
2019-03-18T21:33:49.356Z,2.47
2019-03-18T21:36:37.169Z,2.77
2019-03-18T21:39:01.934Z,1.80
2019-03-18T21:41:37.906Z,2.20
2019-03-18T21:44:12.780Z,3.17
2019-03-18T21:46:47.815Z,2.07
2019-03-18T21:49:22.688Z,2.20
2019-03-18T21:51:57.608Z,2.30
2019-03-18T21:54:34.283Z,2.40
2019-03-18T21:57:10.127Z,4.13
2019-03-18T21:59:48.037Z,3.77
2019-03-18T22:02:25.161Z,2.57
2019-03-18T22:05:00.051Z,2.43
2019-03-18T22:07:34.959Z,3.07
2019-03-18T22:10:11.664Z,2.27
2019-03-18T22:12:49.345Z,3.80
2019-03-18T22:15:24.227Z,3.70
2019-03-18T22:17:59.134Z,3.00
2019-03-18T22:20:34.006Z,2.40
2019-03-18T22:23:08.877Z,3.37
2019-03-18T22:25:43.758Z,3.23
2019-03-18T22:28:18.699Z,2.80
2019-03-18T22:30:53.588Z,2.50
2019-03-18T22:33:28.506Z,3.13
2019-03-18T22:36:03.370Z,2.33
2019-03-18T22:38:38.310Z,3.27
2019-03-18T22:41:13.252Z,3.53
2019-03-18T22:43:48.153Z,3.47
2019-03-18T22:46:23.312Z,2.87
2019-03-18T22:48:58.274Z,3.10
2019-03-18T22:51:33.243Z,2.70
2019-03-18T22:54:08.472Z,2.20
2019-03-18T22:56:43.596Z,2.47
2019-03-18T22:59:20.497Z,2.40
2019-03-18T23:01:55.285Z,2.77
2019-03-18T23:04:30.399Z,2.20
2019-03-18T23:07:05.183Z,2.43
2019-03-18T23:09:40.066Z,3.27
2019-03-18T23:12:14.859Z,4.10
2019-03-18T23:14:49.771Z,3.70
2019-03-18T23:17:24.587Z,3.57
2019-03-18T23:19:59.533Z,3.23
2019-03-18T23:22:34.518Z,3.07
2019-03-18T23:25:09.487Z,3.47
2019-03-18T23:27:44.517Z,3.27
2019-03-18T23:30:19.386Z,3.20
2019-03-18T23:32:54.335Z,3.63
2019-03-18T23:35:30.223Z,3.00
2019-03-18T23:38:07.610Z,2.57
2019-03-18T23:40:44.889Z,3.10
2019-03-18T23:43:20.468Z,3.73
2019-03-18T23:45:55.377Z,2.93
2019-03-18T23:48:31.162Z,2.70
2019-03-18T23:51:06.981Z,3.23
2019-03-18T23:53:41.943Z,3.20
2019-03-18T23:56:16.865Z,2.90
2019-03-18T23:58:51.766Z,3.33
